Time;durP1;ratioP1;P1;durP2;ratioP2;P2;SDS_P1;SDS_P2;PMS_P1;PMS_P2;Temp;Humidity;BMP_temperature;BMP_pressure;BME280_temperature;BME280_humidity;BME280_pressure;Samples;Min_cycle;Max_cycle;Signal;HPM_P1;HPM_P2
2021/12/16 00:08:50;;;;;;;16.13;12.70;;;6.70;99.90;;;;;;5082695;28;20040;-65
2021/12/16 00:33:39;;;;;;;14.77;11.93;;;6.70;99.90;;;;;;5092707;28;20024;-65
2021/12/16 00:36:07;;;;;;;16.75;12.10;;;6.70;99.90;;;;;;5093102;28;20030;-64
2021/12/16 00:38:34;;;;;;;14.90;11.75;;;6.70;99.90;;;;;;5092155;28;20024;-64
2021/12/16 00:41:01;;;;;;;14.30;11.55;;;6.70;99.90;;;;;;5092933;28;20028;-65
2021/12/16 00:43:41;;;;;;;15.68;11.52;;;6.70;99.90;;;;;;5092847;28;20103;-65
2021/12/16 00:56:37;;;;;;;15.50;11.80;;;6.80;99.90;;;;;;5091863;28;20032;-65
2021/12/16 00:59:06;;;;;;;15.18;11.93;;;6.80;99.90;;;;;;5074957;28;20468;-65
2021/12/16 01:34:17;;;;;;;12.20;8.88;;;6.70;99.90;;;;;;5071148;28;20158;-65
2021/12/16 01:57:15;;;;;;;11.85;9.32;;;6.70;99.90;;;;;;5070774;28;20028;-65
2021/12/16 01:59:45;;;;;;;12.50;9.05;;;6.80;99.90;;;;;;5075755;28;20028;-65
2021/12/16 02:02:32;;;;;;;12.57;9.95;;;6.80;99.90;;;;;;5073320;28;20479;-65
2021/12/16 02:36:56;;;;;;;11.45;8.93;;;6.80;99.90;;;;;;5070270;28;20048;-66
2021/12/16 02:39:31;;;;;;;11.05;7.95;;;6.80;99.90;;;;;;5070767;28;20556;-64
2021/12/16 02:42:13;;;;;;;9.57;7.60;;;6.70;99.90;;;;;;5070252;28;20810;-65
2021/12/16 02:50:15;;;;;;;9.88;8.13;;;6.80;99.90;;;;;;5074560;28;20463;-65
2021/12/16 02:52:41;;;;;;;12.18;8.70;;;6.70;99.90;;;;;;5074001;28;20039;-65
2021/12/16 02:55:09;;;;;;;11.35;7.72;;;6.80;99.90;;;;;;5074327;28;20465;-65
2021/12/16 02:57:43;;;;;;;9.45;7.45;;;6.70;99.90;;;;;;5074145;28;20082;-66
2021/12/16 03:00:13;;;;;;;11.30;8.73;;;6.70;99.90;;;;;;5073234;28;20029;-65
2021/12/16 03:02:39;;;;;;;10.45;8.02;;;6.80;99.90;;;;;;5076446;28;20020;-66
2021/12/16 03:05:06;;;;;;;11.55;8.23;;;6.80;99.90;;;;;;5074201;28;20075;-65
2021/12/16 03:07:32;;;;;;;10.52;8.68;;;6.70;99.90;;;;;;5073043;28;20089;-65
2021/12/16 03:15:13;;;;;;;10.98;8.70;;;6.70;99.90;;;;;;5093897;28;20031;-65
2021/12/16 03:18:00;;;;;;;10.52;8.80;;;6.70;99.90;;;;;;5093066;28;20047;-66
2021/12/16 03:20:39;;;;;;;12.75;9.20;;;6.70;99.90;;;;;;5094481;28;20035;-66
2021/12/16 03:34:08;;;;;;;11.95;9.63;;;6.60;99.90;;;;;;5094137;28;20050;-65
2021/12/16 03:36:50;;;;;;;13.65;10.43;;;6.60;99.90;;;;;;5094313;28;20055;-65
2021/12/16 03:39:17;;;;;;;10.70;9.05;;;6.70;99.90;;;;;;5094101;28;20522;-65
2021/12/16 03:41:43;;;;;;;14.02;10.63;;;6.60;99.90;;;;;;5093641;28;20425;-65
2021/12/16 03:44:13;;;;;;;12.80;10.27;;;6.60;99.90;;;;;;5093574;28;20020;-64
2021/12/16 03:46:44;;;;;;;11.82;9.45;;;6.60;99.90;;;;;;5093565;28;20047;-65
2021/12/16 03:49:20;;;;;;;11.13;9.05;;;6.60;99.90;;;;;;5093478;28;20020;-65
2021/12/16 03:51:53;;;;;;;13.52;10.15;;;6.60;99.90;;;;;;5093465;28;20499;-66
2021/12/16 03:54:22;;;;;;;12.80;10.02;;;6.60;99.90;;;;;;5094344;28;20024;-65
2021/12/16 03:56:48;;;;;;;13.48;9.57;;;6.60;99.90;;;;;;5092609;28;20032;-65
2021/12/16 03:59:22;;;;;;;11.05;9.18;;;6.60;99.90;;;;;;5094118;28;20145;-65
2021/12/16 04:01:47;;;;;;;13.43;10.13;;;6.70;99.90;;;;;;5093480;28;20031;-65
2021/12/16 04:04:14;;;;;;;13.45;9.93;;;6.60;99.90;;;;;;5093254;28;20036;-65
2021/12/16 04:06:41;;;;;;;11.25;9.23;;;6.60;99.90;;;;;;5093718;28;20024;-65
2021/12/16 04:09:10;;;;;;;12.38;10.02;;;6.70;99.90;;;;;;5093324;28;20032;-65
2021/12/16 04:11:41;;;;;;;13.75;11.45;;;6.60;99.90;;;;;;5093610;28;20426;-65
2021/12/16 04:14:10;;;;;;;12.00;9.88;;;6.60;99.90;;;;;;5091935;28;20036;-65
2021/12/16 04:16:46;;;;;;;11.18;9.82;;;6.60;99.90;;;;;;5093704;28;20039;-65
2021/12/16 04:19:16;;;;;;;12.45;10.65;;;6.70;99.90;;;;;;5093968;28;20034;-65
2021/12/16 04:21:46;;;;;;;12.27;10.50;;;6.60;99.90;;;;;;5093979;28;20032;-64
2021/12/16 04:24:12;;;;;;;13.32;10.82;;;6.60;99.90;;;;;;5093484;28;20020;-64
2021/12/16 04:26:41;;;;;;;13.38;10.73;;;6.70;99.90;;;;;;5093203;28;20028;-65
2021/12/16 04:29:07;;;;;;;12.95;10.88;;;6.70;99.90;;;;;;5092849;28;20051;-65
2021/12/16 04:31:35;;;;;;;13.15;10.65;;;6.70;99.90;;;;;;5079920;28;20032;-65
2021/12/16 04:34:03;;;;;;;12.98;10.75;;;6.60;99.90;;;;;;5072294;28;20112;-65
2021/12/16 04:36:29;;;;;;;13.40;11.07;;;6.70;99.90;;;;;;5073114;28;20054;-65
2021/12/16 04:38:56;;;;;;;13.50;11.43;;;6.60;99.90;;;;;;5072399;28;20194;-65
2021/12/16 04:41:22;;;;;;;13.45;11.05;;;6.60;99.90;;;;;;5072858;28;20416;-65
2021/12/16 04:43:50;;;;;;;15.93;10.80;;;6.70;99.90;;;;;;5072374;28;20028;-64
2021/12/16 04:46:20;;;;;;;13.45;11.73;;;6.70;99.90;;;;;;5075912;28;20115;-64
2021/12/16 04:48:49;;;;;;;12.75;11.25;;;6.70;99.90;;;;;;5073328;28;20542;-62
2021/12/16 04:51:16;;;;;;;14.80;11.82;;;6.70;99.90;;;;;;5086311;28;20028;-65
2021/12/16 04:53:42;;;;;;;15.38;11.73;;;6.70;99.90;;;;;;5081546;28;20161;-65
2021/12/16 04:56:10;;;;;;;12.65;10.60;;;6.70;99.90;;;;;;5084633;28;20032;-65
2021/12/16 04:58:36;;;;;;;14.95;12.07;;;6.60;99.90;;;;;;5086620;28;20028;-65
2021/12/16 05:01:04;;;;;;;12.77;11.00;;;6.70;99.90;;;;;;5090609;28;20150;-65
2021/12/16 05:03:30;;;;;;;13.32;11.32;;;6.60;99.90;;;;;;5085001;28;20020;-65
2021/12/16 05:05:56;;;;;;;14.02;11.75;;;6.60;99.90;;;;;;5082426;28;20095;-65
2021/12/16 05:08:23;;;;;;;15.90;12.48;;;6.60;99.90;;;;;;5086390;28;20131;-65
2021/12/16 05:10:53;;;;;;;15.60;12.23;;;6.70;99.90;;;;;;5075812;28;20020;-62
2021/12/16 05:13:22;;;;;;;16.17;12.68;;;6.70;99.90;;;;;;5075954;28;20020;-64
2021/12/16 05:15:49;;;;;;;17.33;13.15;;;6.60;99.90;;;;;;5081158;28;20103;-65
2021/12/16 05:18:22;;;;;;;16.08;12.82;;;6.60;99.90;;;;;;5079259;28;20464;-64
2021/12/16 05:20:48;;;;;;;15.93;12.98;;;6.60;99.90;;;;;;5091064;28;20502;-65
2021/12/16 05:28:52;;;;;;;18.08;12.88;;;6.60;99.90;;;;;;5092522;28;20039;-65
2021/12/16 05:31:22;;;;;;;19.48;14.68;;;6.60;99.90;;;;;;5091010;28;20020;-66
2021/12/16 05:33:48;;;;;;;16.95;13.13;;;6.60;99.90;;;;;;5091918;28;20110;-66
2021/12/16 05:36:15;;;;;;;15.85;13.18;;;6.60;99.90;;;;;;5092057;28;20077;-66
2021/12/16 05:38:40;;;;;;;17.25;12.82;;;6.60;99.90;;;;;;5092092;28;20024;-66
2021/12/16 05:41:09;;;;;;;18.88;13.13;;;6.50;99.90;;;;;;5091494;28;20531;-66
2021/12/16 05:43:36;;;;;;;18.08;13.30;;;6.50;99.90;;;;;;5091937;28;20024;-66
2021/12/16 05:46:03;;;;;;;17.02;13.35;;;6.50;99.90;;;;;;5091726;28;20024;-66
2021/12/16 05:48:34;;;;;;;17.63;13.60;;;6.50;99.90;;;;;;5091740;28;20113;-66
2021/12/16 05:51:05;;;;;;;17.52;14.20;;;6.50;99.90;;;;;;5091510;28;20048;-66
2021/12/16 05:53:32;;;;;;;18.10;13.48;;;6.40;99.90;;;;;;5091895;28;20028;-66
2021/12/16 05:55:59;;;;;;;32.28;15.45;;;6.50;99.90;;;;;;5091025;28;20031;-66
2021/12/16 05:58:25;;;;;;;20.20;15.25;;;6.40;99.90;;;;;;5091906;28;20024;-66
2021/12/16 06:01:01;;;;;;;19.17;14.65;;;6.40;99.90;;;;;;5091137;28;20129;-66
2021/12/16 06:03:28;;;;;;;18.55;15.00;;;6.40;99.90;;;;;;5091247;28;20074;-66
2021/12/16 06:05:54;;;;;;;20.60;14.88;;;6.40;99.90;;;;;;5072610;28;20060;-66
2021/12/16 06:08:20;;;;;;;17.25;14.15;;;6.40;99.90;;;;;;5091514;28;20465;-66
2021/12/16 06:13:11;;;;;;;19.48;15.65;;;6.30;99.90;;;;;;5081274;28;20027;-66
2021/12/16 06:27:09;;;;;;;20.00;15.20;;;6.20;99.90;;;;;;5057422;28;20037;-65
2021/12/16 06:29:11;;;;;;;18.95;14.95;;;6.30;99.90;;;;;;5089772;28;20349;-65
2021/12/16 06:31:37;;;;;;;19.73;15.52;;;6.20;99.90;;;;;;5095115;28;20097;-65
2021/12/16 06:34:03;;;;;;;20.95;16.10;;;6.20;99.90;;;;;;5095495;28;20024;-66
2021/12/16 06:36:29;;;;;;;21.80;15.95;;;6.20;99.90;;;;;;5095451;28;20090;-64
2021/12/16 06:38:55;;;;;;;18.02;15.02;;;6.20;99.90;;;;;;5095044;28;20028;-66
2021/12/16 06:41:21;;;;;;;20.63;15.23;;;6.20;99.90;;;;;;5095291;28;20032;-66
2021/12/16 06:43:49;;;;;;;18.17;14.13;;;6.20;99.90;;;;;;5094782;28;20508;-67
2021/12/16 06:46:16;;;;;;;19.48;14.68;;;6.20;99.90;;;;;;5095565;28;20028;-66
2021/12/16 06:48:45;;;;;;;17.20;13.90;;;6.20;99.90;;;;;;5094239;28;20091;-67
2021/12/16 06:51:19;;;;;;;16.45;13.75;;;6.20;99.90;;;;;;5095213;28;20511;-66
2021/12/16 06:53:52;;;;;;;17.05;14.15;;;6.20;99.90;;;;;;5094661;28;20385;-66
2021/12/16 06:56:25;;;;;;;17.95;13.18;;;6.20;99.90;;;;;;5093541;28;20028;-66
2021/12/16 06:59:04;;;;;;;16.75;14.07;;;6.20;99.90;;;;;;5094591;28;20032;-66
2021/12/16 07:01:38;;;;;;;21.08;14.40;;;6.10;99.90;;;;;;5095219;28;20038;-65
2021/12/16 07:04:17;;;;;;;17.15;14.60;;;6.10;99.90;;;;;;5095080;28;20036;-66
2021/12/16 07:06:43;;;;;;;21.33;14.93;;;6.10;99.90;;;;;;5076054;28;20021;-66
2021/12/16 07:09:16;;;;;;;21.52;15.70;;;6.00;99.90;;;;;;5084454;28;20028;-66
2021/12/16 07:11:44;;;;;;;20.42;15.45;;;6.10;99.90;;;;;;5094260;28;20031;-66
2021/12/16 07:14:14;;;;;;;20.08;16.13;;;6.10;99.90;;;;;;5094896;28;20038;-66
2021/12/16 07:16:43;;;;;;;19.55;15.73;;;6.00;99.90;;;;;;5094420;28;20111;-66
2021/12/16 07:19:09;;;;;;;21.05;16.50;;;6.00;99.90;;;;;;5094829;28;20024;-66
2021/12/16 07:21:39;;;;;;;21.63;16.73;;;6.00;99.90;;;;;;5094515;28;20039;-66
2021/12/16 07:24:07;;;;;;;19.38;16.30;;;6.00;99.90;;;;;;5094774;28;20099;-66
2021/12/16 07:26:34;;;;;;;20.67;17.05;;;6.00;99.90;;;;;;5094608;28;20028;-66
2021/12/16 07:29:00;;;;;;;22.27;16.77;;;6.00;99.90;;;;;;5092778;28;20028;-66
2021/12/16 07:31:28;;;;;;;20.35;16.40;;;6.00;99.90;;;;;;5093381;28;20032;-66
2021/12/16 07:33:54;;;;;;;23.95;16.90;;;6.00;99.90;;;;;;5093849;28;20028;-66
2021/12/16 07:36:20;;;;;;;21.10;16.63;;;6.00;99.90;;;;;;5094334;28;20027;-66
2021/12/16 07:38:47;;;;;;;23.77;16.45;;;6.00;99.90;;;;;;5093484;28;20035;-65
2021/12/16 07:41:13;;;;;;;21.05;15.43;;;6.00;99.90;;;;;;5094130;28;20032;-65
2021/12/16 07:44:09;;;;;;;20.30;16.23;;;6.00;99.90;;;;;;5094282;28;20020;-65
2021/12/16 07:46:47;;;;;;;20.10;16.35;;;6.00;99.90;;;;;;5093935;28;20035;-66
2021/12/16 07:49:18;;;;;;;19.65;15.90;;;6.00;99.90;;;;;;5094281;28;20044;-66
2021/12/16 07:51:44;;;;;;;23.13;16.40;;;6.00;99.90;;;;;;5093582;28;20032;-66
2021/12/16 07:54:13;;;;;;;22.45;16.33;;;6.00;99.90;;;;;;5093944;28;20481;-66
2021/12/16 07:56:39;;;;;;;20.33;16.25;;;6.00;99.90;;;;;;5093786;28;20049;-66
2021/12/16 07:59:05;;;;;;;20.88;16.00;;;6.00;99.90;;;;;;5093379;28;20024;-65
2021/12/16 08:01:31;;;;;;;21.42;16.63;;;6.00;99.90;;;;;;5093798;28;20503;-66
2021/12/16 08:03:57;;;;;;;25.40;16.30;;;6.00;99.90;;;;;;5093212;28;20111;-66
2021/12/16 08:06:26;;;;;;;21.00;15.10;;;6.00;99.90;;;;;;5093368;28;20515;-66
2021/12/16 08:08:57;;;;;;;18.33;14.60;;;6.00;99.90;;;;;;5093163;28;20024;-66
2021/12/16 08:11:26;;;;;;;19.80;15.00;;;6.00;99.90;;;;;;5093859;28;20027;-66
2021/12/16 08:13:52;;;;;;;20.83;14.95;;;6.00;99.90;;;;;;5093448;28;20433;-65
2021/12/16 08:16:22;;;;;;;21.58;15.80;;;6.00;99.90;;;;;;5093769;28;20114;-65
2021/12/16 08:18:49;;;;;;;18.98;14.65;;;6.00;99.90;;;;;;5093027;28;20473;-65
2021/12/16 08:21:14;;;;;;;17.08;13.52;;;6.00;99.90;;;;;;5093938;28;20048;-65
2021/12/16 08:23:40;;;;;;;15.95;12.85;;;6.10;99.90;;;;;;5093906;28;20538;-66
2021/12/16 08:26:06;;;;;;;17.20;12.65;;;6.10;99.90;;;;;;5092405;28;20031;-66
2021/12/16 08:28:33;;;;;;;16.85;12.55;;;6.10;99.90;;;;;;5093458;28;20035;-66
2021/12/16 08:30:59;;;;;;;19.23;13.60;;;6.10;99.90;;;;;;5092757;28;20028;-65
2021/12/16 08:33:25;;;;;;;16.67;12.15;;;6.10;99.90;;;;;;5093354;28;20020;-65
2021/12/16 08:35:53;;;;;;;14.85;10.88;;;6.10;99.90;;;;;;5092635;28;20046;-65
2021/12/16 08:38:22;;;;;;;15.23;11.50;;;6.10;99.90;;;;;;5093279;28;20028;-65
2021/12/16 08:40:51;;;;;;;13.60;10.23;;;6.20;99.90;;;;;;5092316;28;20103;-65
2021/12/16 08:43:17;;;;;;;12.05;8.98;;;6.20;99.90;;;;;;5092785;28;20028;-65
2021/12/16 08:45:44;;;;;;;12.75;9.70;;;6.20;99.90;;;;;;5093041;28;20103;-65
2021/12/16 08:48:10;;;;;;;11.07;9.18;;;6.20;99.90;;;;;;5092529;28;20071;-65
2021/12/16 08:50:39;;;;;;;14.82;9.23;;;6.30;99.90;;;;;;5092804;28;20404;-65
2021/12/16 08:53:06;;;;;;;10.13;7.60;;;6.30;99.90;;;;;;5092363;28;20304;-66
2021/12/16 08:55:33;;;;;;;9.48;7.85;;;6.30;99.90;;;;;;5092735;28;20016;-66
2021/12/16 08:58:00;;;;;;;9.50;7.18;;;6.30;99.90;;;;;;5092062;28;20032;-65
2021/12/16 09:00:29;;;;;;;11.57;7.53;;;6.30;99.90;;;;;;5092869;28;20032;-66
2021/12/16 09:02:55;;;;;;;8.43;6.55;;;6.20;99.90;;;;;;5092256;28;20107;-65
2021/12/16 09:05:22;;;;;;;10.05;6.50;;;6.20;99.90;;;;;;5092498;28;20472;-66
2021/12/16 09:07:49;;;;;;;9.18;6.50;;;6.20;99.90;;;;;;5092050;28;20032;-66
2021/12/16 09:10:23;;;;;;;7.75;5.47;;;6.20;99.90;;;;;;5089392;28;20034;-66
2021/12/16 09:15:17;;;;;;;10.45;6.28;;;6.30;99.90;;;;;;5090974;28;20059;-65
2021/12/16 09:17:42;;;;;;;9.20;6.40;;;6.30;99.90;;;;;;5092564;28;20024;-66
2021/12/16 09:20:09;;;;;;;8.02;5.80;;;6.30;99.90;;;;;;5092162;28;20042;-66
2021/12/16 09:22:36;;;;;;;8.73;6.57;;;6.30;99.90;;;;;;5092547;28;20586;-65
2021/12/16 09:25:03;;;;;;;7.20;5.95;;;6.40;99.90;;;;;;5092198;28;20069;-65
2021/12/16 09:27:29;;;;;;;6.47;5.43;;;6.30;99.90;;;;;;5092092;28;20028;-65
2021/12/16 09:29:55;;;;;;;7.00;6.00;;;6.30;99.90;;;;;;5091831;28;20036;-65
2021/12/16 09:32:23;;;;;;;6.90;5.72;;;6.30;99.90;;;;;;5092010;28;20027;-65
2021/12/16 09:34:48;;;;;;;8.20;6.43;;;6.30;99.90;;;;;;5091614;28;20110;-65
2021/12/16 09:37:14;;;;;;;9.68;6.00;;;6.40;99.90;;;;;;5092262;28;20433;-65
2021/12/16 09:39:40;;;;;;;6.72;5.00;;;6.40;99.90;;;;;;5092220;28;20020;-65
2021/12/16 09:42:09;;;;;;;6.78;5.20;;;6.40;99.90;;;;;;5091695;28;20165;-66
2021/12/16 09:44:36;;;;;;;6.55;5.40;;;6.50;99.90;;;;;;5092008;28;20085;-65
2021/12/16 09:47:06;;;;;;;6.43;5.05;;;6.50;99.90;;;;;;5091145;28;20028;-65
2021/12/16 09:49:33;;;;;;;6.55;4.85;;;6.50;99.90;;;;;;5092171;28;20046;-65
2021/12/16 09:52:00;;;;;;;9.55;4.60;;;6.50;99.90;;;;;;5091619;28;20028;-65
2021/12/16 09:54:29;;;;;;;7.10;5.15;;;6.50;99.90;;;;;;5090959;28;20036;-66
2021/12/16 09:56:56;;;;;;;6.30;4.97;;;6.50;99.90;;;;;;5091412;28;20031;-65
2021/12/16 09:59:23;;;;;;;7.25;5.93;;;6.50;99.90;;;;;;5091782;28;20032;-66
2021/12/16 10:01:52;;;;;;;7.32;5.22;;;6.60;99.90;;;;;;5091896;28;20469;-66
2021/12/16 10:04:21;;;;;;;6.97;5.43;;;6.60;99.90;;;;;;5091854;28;20099;-65
2021/12/16 10:06:49;;;;;;;7.70;4.85;;;6.60;99.90;;;;;;5091802;28;20032;-65
2021/12/16 10:09:15;;;;;;;8.30;5.18;;;6.60;99.90;;;;;;5091278;28;20032;-65
2021/12/16 10:11:44;;;;;;;6.68;4.65;;;6.60;99.90;;;;;;5091785;28;20028;-66
2021/12/16 10:19:27;;;;;;;6.55;4.85;;;6.60;99.90;;;;;;5091872;28;20062;-65
2021/12/16 10:21:54;;;;;;;5.72;4.68;;;6.60;99.90;;;;;;5090915;28;20024;-65
2021/12/16 10:24:29;;;;;;;7.00;5.15;;;6.60;99.90;;;;;;5091694;28;20419;-66
2021/12/16 10:27:14;;;;;;;10.98;5.07;;;6.60;99.90;;;;;;5091103;28;20024;-66
2021/12/16 10:29:46;;;;;;;5.20;4.38;;;6.60;99.90;;;;;;5091629;28;20107;-66
2021/12/16 10:32:30;;;;;;;;;;;6.50;99.90;;;;;;5091470;28;20032;-66
2021/12/16 10:35:02;;;;;;;5.13;4.40;;;6.50;99.90;;;;;;5091131;28;19908;-66
2021/12/16 10:37:30;;;;;;;9.27;5.18;;;6.50;99.90;;;;;;5091286;28;20488;-66
2021/12/16 10:40:34;;;;;;;9.35;5.65;;;6.40;99.90;;;;;;5090710;28;20392;-65
2021/12/16 10:43:04;;;;;;;7.40;4.90;;;6.40;99.90;;;;;;5090982;28;20107;-65
2021/12/16 10:45:50;;;;;;;6.20;4.97;;;6.40;99.90;;;;;;5091777;28;20165;-66
2021/12/16 10:48:28;;;;;;;8.65;5.57;;;6.40;99.90;;;;;;5089795;28;20054;-65
2021/12/16 10:51:11;;;;;;;8.85;5.80;;;6.40;99.90;;;;;;5091573;28;20077;-66
2021/12/16 10:54:00;;;;;;;9.18;5.53;;;6.40;99.90;;;;;;5091580;28;20463;-66
2021/12/16 10:56:45;;;;;;;13.98;5.68;;;6.50;99.90;;;;;;5091300;28;20117;-66
2021/12/16 10:59:25;;;;;;;6.90;5.50;;;6.50;99.90;;;;;;5090507;28;20507;-66
2021/12/16 11:02:04;;;;;;;7.40;5.55;;;6.50;99.90;;;;;;5091018;28;20028;-66
2021/12/16 11:04:41;;;;;;;7.68;5.65;;;6.50;99.90;;;;;;5091203;28;20032;-65
2021/12/16 11:07:28;;;;;;;8.40;5.68;;;6.50;99.90;;;;;;5093388;28;20024;-65
2021/12/16 11:09:54;;;;;;;8.30;4.95;;;6.40;99.90;;;;;;5094921;28;20054;-65
2021/12/16 11:12:45;;;;;;;8.50;5.57;;;6.50;99.90;;;;;;5095005;28;20461;-65
2021/12/16 11:15:23;;;;;;;7.83;5.70;;;6.50;99.90;;;;;;5081233;28;20039;-65
2021/12/16 11:17:55;;;;;;;10.10;5.78;;;6.50;99.90;;;;;;5091521;28;20024;-66
2021/12/16 11:20:23;;;;;;;9.25;6.03;;;6.50;99.90;;;;;;5094825;28;20096;-66
2021/12/16 11:22:56;;;;;;;6.25;4.88;;;6.50;99.90;;;;;;5094707;28;20422;-65
2021/12/16 11:25:27;;;;;;;7.20;5.70;;;6.50;99.90;;;;;;5094919;28;20074;-65
2021/12/16 11:28:08;;;;;;;6.68;5.13;;;6.50;99.90;;;;;;5094506;28;20032;-65
2021/12/16 11:30:52;;;;;;;7.47;5.53;;;6.50;99.90;;;;;;5093590;28;20372;-66
2021/12/16 11:33:27;;;;;;;7.82;5.95;;;6.50;99.90;;;;;;5094016;28;20024;-65
2021/12/16 11:36:06;;;;;;;8.55;6.60;;;6.60;99.90;;;;;;5094475;28;20024;-66
2021/12/16 11:38:49;;;;;;;6.05;5.45;;;6.70;99.90;;;;;;5094472;28;20520;-66
2021/12/16 11:41:22;;;;;;;12.15;5.82;;;6.80;99.90;;;;;;5093882;28;20131;-66
2021/12/16 11:44:07;;;;;;;9.27;5.28;;;6.90;99.90;;;;;;5094279;28;20107;-66
2021/12/16 11:46:40;;;;;;;7.93;5.97;;;6.90;99.90;;;;;;5094294;28;20136;-66
2021/12/16 11:49:14;;;;;;;8.15;6.15;;;6.90;99.90;;;;;;5093719;28;20235;-66
2021/12/16 11:52:12;;;;;;;7.72;5.53;;;7.00;99.90;;;;;;5094405;28;20020;-66
2021/12/16 11:55:00;;;;;;;7.97;5.60;;;7.00;99.90;;;;;;5059961;28;20072;-66
2021/12/16 11:57:33;;;;;;;7.55;6.05;;;7.10;99.90;;;;;;5094136;28;20106;-65
2021/12/16 12:00:07;;;;;;;11.15;6.22;;;7.10;99.90;;;;;;5093188;28;20349;-66
2021/12/16 12:02:42;;;;;;;10.70;6.78;;;7.10;99.90;;;;;;5094111;28;20461;-65
2021/12/16 12:05:29;;;;;;;9.00;6.63;;;7.10;99.90;;;;;;5093237;28;20070;-65
2021/12/16 12:08:23;;;;;;;9.00;5.80;;;7.10;99.90;;;;;;5093676;28;20032;-66
2021/12/16 12:10:59;;;;;;;9.68;6.35;;;7.10;99.90;;;;;;5093776;28;20028;-65
2021/12/16 12:13:36;;;;;;;8.40;7.00;;;7.20;99.90;;;;;;5093586;28;20034;-65
2021/12/16 12:16:09;;;;;;;10.23;7.10;;;7.20;99.90;;;;;;5092684;28;20093;-66
2021/12/16 12:18:47;;;;;;;9.10;6.78;;;7.20;99.90;;;;;;5092801;28;20093;-66
2021/12/16 12:21:18;;;;;;;10.05;7.28;;;7.20;99.90;;;;;;5092966;28;20467;-66
2021/12/16 12:23:44;;;;;;;10.43;7.28;;;7.20;99.90;;;;;;5093486;28;20036;-65
2021/12/16 12:26:16;;;;;;;10.88;7.38;;;7.20;99.90;;;;;;5092801;28;20024;-66
2021/12/16 12:28:44;;;;;;;11.70;7.15;;;7.20;99.90;;;;;;5093205;28;20484;-65
2021/12/16 12:31:11;;;;;;;11.73;7.68;;;7.20;99.90;;;;;;5092688;28;20164;-65
2021/12/16 12:33:37;;;;;;;9.80;7.82;;;7.20;99.90;;;;;;5092919;28;20465;-66
2021/12/16 12:36:03;;;;;;;12.93;7.95;;;7.20;99.90;;;;;;5092589;28;20024;-66
2021/12/16 12:38:29;;;;;;;11.30;8.38;;;7.30;99.90;;;;;;5093100;28;20473;-66
2021/12/16 12:40:55;;;;;;;10.38;7.97;;;7.30;99.90;;;;;;5091670;28;20035;-65
2021/12/16 12:43:22;;;;;;;11.48;8.18;;;7.30;99.90;;;;;;5092474;28;20039;-65
2021/12/16 12:45:49;;;;;;;12.25;8.38;;;7.30;99.90;;;;;;5091728;28;20373;-65
2021/12/16 12:48:35;;;;;;;11.02;8.48;;;7.30;99.90;;;;;;5092300;28;20048;-65
2021/12/16 12:51:04;;;;;;;12.65;9.27;;;7.30;99.90;;;;;;5093033;28;20028;-66
2021/12/16 12:53:49;;;;;;;11.65;9.05;;;7.30;99.90;;;;;;5092914;28;20103;-65
2021/12/16 12:56:29;;;;;;;13.95;9.48;;;7.30;99.90;;;;;;5092488;28;20027;-65
2021/12/16 12:59:11;;;;;;;12.18;10.20;;;7.30;99.90;;;;;;5093147;28;20437;-65
2021/12/16 13:01:48;;;;;;;12.05;9.55;;;7.30;99.90;;;;;;5092612;28;20473;-65
2021/12/16 13:04:27;;;;;;;12.23;10.00;;;7.30;99.90;;;;;;5092464;28;20027;-64
2021/12/16 13:06:53;;;;;;;12.80;10.43;;;7.30;99.90;;;;;;5092546;28;20039;-66
2021/12/16 13:09:49;;;;;;;12.18;9.52;;;7.30;99.90;;;;;;5092045;28;20028;-65
2021/12/16 13:12:24;;;;;;;12.23;9.95;;;7.20;99.90;;;;;;5090508;28;20040;-65
2021/12/16 13:14:52;;;;;;;12.63;9.88;;;7.20;99.90;;;;;;5092891;28;20028;-65
2021/12/16 13:23:22;;;;;;;14.93;10.70;;;7.20;99.90;;;;;;5091781;28;20024;-65
2021/12/16 13:23:28;;;;;;;13.05;10.60;;;7.20;99.90;;;;;;5089416;28;20116;-65
2021/12/16 13:29:07;;;;;;;14.25;11.43;;;7.10;99.90;;;;;;5091678;28;20507;-66
2021/12/16 13:31:48;;;;;;;15.70;12.63;;;7.10;99.90;;;;;;5092166;28;20376;-65
2021/12/16 13:34:25;;;;;;;17.08;13.07;;;7.10;99.90;;;;;;5091743;28;20081;-65
2021/12/16 13:36:56;;;;;;;21.95;12.77;;;7.10;99.90;;;;;;5092034;28;20052;-65
2021/12/16 13:39:25;;;;;;;15.03;12.00;;;7.10;99.90;;;;;;5091681;28;20038;-65
2021/12/16 13:41:58;;;;;;;15.70;12.73;;;7.00;99.90;;;;;;5091936;28;20107;-65
2021/12/16 13:44:39;;;;;;;16.27;12.95;;;7.00;99.90;;;;;;5091556;28;20024;-65
2021/12/16 14:01:33;;;;;;;16.63;14.07;;;6.90;99.90;;;;;;5091357;28;20039;-66
2021/12/16 14:06:52;;;;;;;18.92;13.73;;;6.90;99.90;;;;;;5091381;28;20106;-66
2021/12/16 14:09:24;;;;;;;18.95;13.07;;;6.90;99.90;;;;;;5090899;28;20051;-66
2021/12/16 14:17:51;;;;;;;16.25;12.95;;;6.90;99.90;;;;;;5092001;28;20043;-66
2021/12/16 14:23:24;;;;;;;16.50;13.05;;;6.90;99.90;;;;;;5091504;28;20070;-66
2021/12/16 14:26:16;;;;;;;19.80;13.32;;;6.90;99.90;;;;;;5091807;28;20103;-66
2021/12/16 14:37:16;;;;;;;17.95;13.90;;;6.90;99.90;;;;;;5091754;28;20051;-66
2021/12/16 14:40:22;;;;;;;17.77;12.70;;;6.90;99.90;;;;;;5091566;28;20178;-66
2021/12/16 14:43:15;;;;;;;16.25;12.60;;;6.90;99.90;;;;;;5095753;28;20069;-66
2021/12/16 14:45:47;;;;;;;15.00;12.00;;;6.90;99.90;;;;;;5094498;28;20020;-66
2021/12/16 14:50:49;;;;;;;18.15;11.23;;;6.90;99.90;;;;;;5095649;28;20093;-65
2021/12/16 14:53:44;;;;;;;16.67;11.25;;;6.90;99.90;;;;;;5094300;28;20028;-66
2021/12/16 14:56:17;;;;;;;13.50;11.15;;;6.90;99.90;;;;;;5077679;28;20122;-66
2021/12/16 14:58:48;;;;;;;13.32;11.95;;;6.80;99.90;;;;;;5095282;28;20039;-66
2021/12/16 15:01:33;;;;;;;16.05;12.18;;;6.80;99.90;;;;;;5094752;28;20349;-66
2021/12/16 15:03:59;;;;;;;13.73;11.77;;;6.80;99.90;;;;;;5093815;28;20054;-64
2021/12/16 15:06:33;;;;;;;14.07;11.80;;;6.80;99.90;;;;;;5094434;28;20032;-65
2021/12/16 15:09:29;;;;;;;13.20;10.98;;;6.80;99.90;;;;;;5094907;28;20111;-66
2021/12/16 15:40:39;;;;;;;13.00;10.15;;;6.80;99.90;;;;;;5011417;28;20050;-65
2021/12/16 15:43:08;;;;;;;17.80;11.85;;;6.80;99.90;;;;;;5065464;28;20115;-64
2021/12/16 15:45:45;;;;;;;12.93;10.65;;;6.70;99.90;;;;;;5073428;28;20461;-65
2021/12/16 15:48:19;;;;;;;12.63;11.32;;;6.70;99.90;;;;;;5073916;28;20052;-65
2021/12/16 15:50:51;;;;;;;15.18;10.80;;;6.70;99.90;;;;;;5072697;28;20186;-65
2021/12/16 15:53:20;;;;;;;15.43;11.68;;;6.60;99.90;;;;;;5072130;28;20504;-66
2021/12/16 15:56:09;;;;;;;15.27;11.02;;;6.60;99.90;;;;;;5074018;28;20036;-65
2021/12/16 15:58:57;;;;;;;16.42;11.20;;;6.60;99.90;;;;;;5073505;28;20093;-66
2021/12/16 16:01:51;;;;;;;15.07;10.82;;;6.60;99.90;;;;;;5073361;28;20070;-66
2021/12/16 16:04:23;;;;;;;14.73;11.35;;;6.60;99.90;;;;;;5073349;28;20025;-65
2021/12/16 16:06:57;;;;;;;12.45;10.85;;;6.60;99.90;;;;;;5073550;28;20481;-65
2021/12/16 16:09:24;;;;;;;12.82;11.02;;;6.60;99.90;;;;;;5073082;28;20369;-66
2021/12/16 16:11:53;;;;;;;13.30;10.23;;;6.60;99.90;;;;;;5073371;28;20020;-66
2021/12/16 16:14:21;;;;;;;13.68;10.18;;;6.60;99.90;;;;;;5073072;28;20091;-66
2021/12/16 16:16:53;;;;;;;12.43;9.70;;;6.60;99.90;;;;;;5073663;28;20044;-66
2021/12/16 16:19:30;;;;;;;11.70;10.07;;;6.60;99.90;;;;;;5073119;28;20027;-66
2021/12/16 16:21:57;;;;;;;13.48;9.90;;;6.60;99.90;;;;;;5073106;28;20151;-67
2021/12/16 16:24:33;;;;;;;11.55;10.02;;;6.60;99.90;;;;;;5072559;28;20412;-66
2021/12/16 16:27:03;;;;;;;11.98;10.05;;;6.60;99.90;;;;;;5073363;28;20029;-66
2021/12/16 16:29:31;;;;;;;11.27;9.47;;;6.50;99.90;;;;;;5072885;28;20035;-66
2021/12/16 16:31:57;;;;;;;12.65;9.70;;;6.50;99.90;;;;;;5073224;28;20040;-65
2021/12/16 16:34:27;;;;;;;10.55;9.25;;;6.50;99.90;;;;;;5072706;28;20056;-65
2021/12/16 16:37:02;;;;;;;12.68;9.68;;;6.50;99.90;;;;;;5072900;28;20028;-65
2021/12/16 16:39:32;;;;;;;12.95;9.40;;;6.50;99.90;;;;;;5072415;28;20099;-66
2021/12/16 16:42:07;;;;;;;11.98;9.82;;;6.50;99.90;;;;;;5073307;28;20024;-65
2021/12/16 16:44:34;;;;;;;10.35;8.25;;;6.50;99.90;;;;;;5072390;28;20021;-65
2021/12/16 16:47:09;;;;;;;11.07;8.48;;;6.50;99.90;;;;;;5072582;28;20158;-66
2021/12/16 16:49:48;;;;;;;11.93;9.00;;;6.40;99.90;;;;;;5072095;28;20114;-65
2021/12/16 16:52:22;;;;;;;9.77;8.32;;;6.40;99.90;;;;;;5072776;28;20035;-65
2021/12/16 16:55:04;;;;;;;10.10;7.82;;;6.40;99.90;;;;;;5072916;28;20443;-65
2021/12/16 16:57:34;;;;;;;8.13;7.28;;;6.40;99.90;;;;;;5071826;28;20028;-65
2021/12/16 17:00:07;;;;;;;8.55;7.65;;;6.40;99.90;;;;;;5072364;28;20024;-65
2021/12/16 17:02:44;;;;;;;10.45;8.02;;;6.40;99.90;;;;;;5072047;28;20047;-65
2021/12/16 17:05:27;;;;;;;9.70;7.78;;;6.40;99.90;;;;;;5072495;28;20029;-66
2021/12/16 17:08:05;;;;;;;10.07;7.47;;;6.40;99.90;;;;;;5072915;28;20322;-66
2021/12/16 17:10:39;;;;;;;8.13;6.78;;;6.40;99.90;;;;;;5071666;28;20434;-67
2021/12/16 17:13:07;;;;;;;6.97;6.32;;;6.40;99.90;;;;;;5072430;28;20028;-64
2021/12/16 17:15:44;;;;;;;9.13;6.63;;;6.40;99.90;;;;;;5071917;28;20036;-65